sensor_id;sensor_type;location;lat;lon;timestamp;temperature;humidity
23671;DHT22;12012;51.998;7.614;2022-11-20T00:01:08;-2.60;99.90
23671;DHT22;12012;51.998;7.614;2022-11-20T00:03:35;-2.70;99.90
23671;DHT22;12012;51.998;7.614;2022-11-20T00:06:02;-2.70;99.90
23671;DHT22;12012;51.998;7.614;2022-11-20T00:08:28;-2.70;99.90
23671;DHT22;12012;51.998;7.614;2022-11-20T00:10:53;-2.70;99.90
23671;DHT22;12012;51.998;7.614;2022-11-20T00:13:19;-2.70;99.90
23671;DHT22;12012;51.998;7.614;2022-11-20T00:15:44;-2.70;99.90
23671;DHT22;12012;51.998;7.614;2022-11-20T00:18:10;-2.80;99.90
23671;DHT22;12012;51.998;7.614;2022-11-20T00:20:35;-2.70;99.90
23671;DHT22;12012;51.998;7.614;2022-11-20T00:23:01;-2.70;99.90
23671;DHT22;12012;51.998;7.614;2022-11-20T00:25:27;-2.70;99.90
23671;DHT22;12012;51.998;7.614;2022-11-20T00:27:52;-2.80;99.90
23671;DHT22;12012;51.998;7.614;2022-11-20T00:30:18;-2.80;99.90
23671;DHT22;12012;51.998;7.614;2022-11-20T00:32:43;-2.80;99.90
23671;DHT22;12012;51.998;7.614;2022-11-20T00:35:09;-2.80;99.90
23671;DHT22;12012;51.998;7.614;2022-11-20T00:37:34;-2.80;99.90
23671;DHT22;12012;51.998;7.614;2022-11-20T00:40:00;-2.90;99.90
23671;DHT22;12012;51.998;7.614;2022-11-20T00:42:26;-2.90;99.90
23671;DHT22;12012;51.998;7.614;2022-11-20T00:44:51;-3.00;99.90
23671;DHT22;12012;51.998;7.614;2022-11-20T00:47:17;-3.00;99.90
23671;DHT22;12012;51.998;7.614;2022-11-20T00:49:42;-3.00;1.00
23671;DHT22;12012;51.998;7.614;2022-11-20T00:52:08;-3.00;1.00
23671;DHT22;12012;51.998;7.614;2022-11-20T00:54:34;-3.00;99.90
23671;DHT22;12012;51.998;7.614;2022-11-20T00:56:59;-3.10;99.90
23671;DHT22;12012;51.998;7.614;2022-11-20T00:59:25;-3.10;99.90
23671;DHT22;12012;51.998;7.614;2022-11-20T01:01:50;-3.10;99.90
23671;DHT22;12012;51.998;7.614;2022-11-20T01:04:16;-3.20;99.90
23671;DHT22;12012;51.998;7.614;2022-11-20T01:06:41;-3.20;99.90
23671;DHT22;12012;51.998;7.614;2022-11-20T01:09:13;-3.20;99.90
23671;DHT22;12012;51.998;7.614;2022-11-20T01:11:41;-3.20;1.00
23671;DHT22;12012;51.998;7.614;2022-11-20T01:14:10;-3.30;1.00
23671;DHT22;12012;51.998;7.614;2022-11-20T01:16:44;-3.30;1.00
23671;DHT22;12012;51.998;7.614;2022-11-20T01:19:13;-3.30;1.00
23671;DHT22;12012;51.998;7.614;2022-11-20T01:21:41;-3.30;40.40
23671;DHT22;12012;51.998;7.614;2022-11-20T01:24:08;-3.20;99.90
23671;DHT22;12012;51.998;7.614;2022-11-20T01:26:37;-3.20;1.00
23671;DHT22;12012;51.998;7.614;2022-11-20T01:29:04;-3.20;99.90
23671;DHT22;12012;51.998;7.614;2022-11-20T01:31:31;-3.20;87.70
23671;DHT22;12012;51.998;7.614;2022-11-20T01:33:59;-3.20;1.00
23671;DHT22;12012;51.998;7.614;2022-11-20T01:36:27;-3.20;1.00
23671;DHT22;12012;51.998;7.614;2022-11-20T01:38:56;-3.20;1.00
23671;DHT22;12012;51.998;7.614;2022-11-20T01:41:22;-3.20;41.50
23671;DHT22;12012;51.998;7.614;2022-11-20T01:44:08;-3.20;28.40
23671;DHT22;12012;51.998;7.614;2022-11-20T01:46:37;-3.20;1.00
23671;DHT22;12012;51.998;7.614;2022-11-20T01:49:23;-3.30;1.00
23671;DHT22;12012;51.998;7.614;2022-11-20T01:51:57;-3.30;1.00
23671;DHT22;12012;51.998;7.614;2022-11-20T01:54:54;-3.40;1.00
23671;DHT22;12012;51.998;7.614;2022-11-20T01:57:22;-3.40;1.00
23671;DHT22;12012;51.998;7.614;2022-11-20T01:59:55;-3.40;1.00
23671;DHT22;12012;51.998;7.614;2022-11-20T02:02:22;-3.40;1.00
23671;DHT22;12012;51.998;7.614;2022-11-20T02:08:10;-3.40;99.90
23671;DHT22;12012;51.998;7.614;2022-11-20T02:10:37;-3.40;99.90
23671;DHT22;12012;51.998;7.614;2022-11-20T02:13:03;-3.30;99.90
23671;DHT22;12012;51.998;7.614;2022-11-20T02:15:48;-3.30;75.10
23671;DHT22;12012;51.998;7.614;2022-11-20T02:18:16;-3.30;49.30
23671;DHT22;12012;51.998;7.614;2022-11-20T02:20:45;-3.30;73.00
23671;DHT22;12012;51.998;7.614;2022-11-20T02:25:58;-3.40;88.60
23671;DHT22;12012;51.998;7.614;2022-11-20T02:28:25;-3.50;99.90
23671;DHT22;12012;51.998;7.614;2022-11-20T02:30:51;-3.50;79.70
23671;DHT22;12012;51.998;7.614;2022-11-20T02:33:16;-3.60;1.00
23671;DHT22;12012;51.998;7.614;2022-11-20T02:35:45;-3.60;75.80
23671;DHT22;12012;51.998;7.614;2022-11-20T02:38:11;-3.60;99.90
23671;DHT22;12012;51.998;7.614;2022-11-20T02:40:37;-3.60;99.90
23671;DHT22;12012;51.998;7.614;2022-11-20T02:43:02;-3.70;99.90
23671;DHT22;12012;51.998;7.614;2022-11-20T02:45:28;-3.60;99.90
23671;DHT22;12012;51.998;7.614;2022-11-20T02:47:53;-3.60;99.90
23671;DHT22;12012;51.998;7.614;2022-11-20T02:50:19;-3.60;99.90
23671;DHT22;12012;51.998;7.614;2022-11-20T02:52:45;-3.60;99.90
23671;DHT22;12012;51.998;7.614;2022-11-20T02:55:10;-3.60;94.10
23671;DHT22;12012;51.998;7.614;2022-11-20T02:57:36;-3.60;99.90
23671;DHT22;12012;51.998;7.614;2022-11-20T03:00:03;-3.70;99.90
23671;DHT22;12012;51.998;7.614;2022-11-20T03:02:31;-3.70;99.90
23671;DHT22;12012;51.998;7.614;2022-11-20T03:04:57;-3.70;99.90
23671;DHT22;12012;51.998;7.614;2022-11-20T03:07:23;-3.70;99.90
23671;DHT22;12012;51.998;7.614;2022-11-20T03:09:48;-3.70;99.90
23671;DHT22;12012;51.998;7.614;2022-11-20T03:12:14;-3.70;99.90
23671;DHT22;12012;51.998;7.614;2022-11-20T03:14:40;-3.70;99.90
23671;DHT22;12012;51.998;7.614;2022-11-20T03:17:05;-3.80;99.90
23671;DHT22;12012;51.998;7.614;2022-11-20T03:19:31;-3.90;75.30
23671;DHT22;12012;51.998;7.614;2022-11-20T03:21:57;-3.90;1.00
23671;DHT22;12012;51.998;7.614;2022-11-20T03:24:22;-3.90;26.60
23671;DHT22;12012;51.998;7.614;2022-11-20T03:26:48;-3.90;1.00
23671;DHT22;12012;51.998;7.614;2022-11-20T03:29:14;-3.90;1.00
23671;DHT22;12012;51.998;7.614;2022-11-20T03:31:40;-3.90;1.00
23671;DHT22;12012;51.998;7.614;2022-11-20T03:34:06;-3.90;19.40
23671;DHT22;12012;51.998;7.614;2022-11-20T03:36:33;-3.90;1.00
23671;DHT22;12012;51.998;7.614;2022-11-20T03:38:58;-3.90;1.00
23671;DHT22;12012;51.998;7.614;2022-11-20T03:41:29;-3.80;1.00
23671;DHT22;12012;51.998;7.614;2022-11-20T03:44:00;-3.80;1.00
23671;DHT22;12012;51.998;7.614;2022-11-20T03:46:26;-3.70;1.00
23671;DHT22;12012;51.998;7.614;2022-11-20T03:48:52;-3.70;1.00
23671;DHT22;12012;51.998;7.614;2022-11-20T03:51:21;-3.70;1.00
23671;DHT22;12012;51.998;7.614;2022-11-20T03:53:48;-3.70;1.00
23671;DHT22;12012;51.998;7.614;2022-11-20T03:56:16;-3.70;99.90
23671;DHT22;12012;51.998;7.614;2022-11-20T03:58:42;-3.70;99.90
23671;DHT22;12012;51.998;7.614;2022-11-20T04:01:15;-3.70;99.90
23671;DHT22;12012;51.998;7.614;2022-11-20T04:03:42;-3.80;99.90
23671;DHT22;12012;51.998;7.614;2022-11-20T04:06:14;-3.80;99.90
23671;DHT22;12012;51.998;7.614;2022-11-20T04:08:41;-3.90;99.90
23671;DHT22;12012;51.998;7.614;2022-11-20T04:11:21;-3.90;99.90
23671;DHT22;12012;51.998;7.614;2022-11-20T04:13:50;-3.90;99.90
23671;DHT22;12012;51.998;7.614;2022-11-20T04:16:16;-3.90;99.90
23671;DHT22;12012;51.998;7.614;2022-11-20T04:18:42;-3.90;99.90
23671;DHT22;12012;51.998;7.614;2022-11-20T04:21:09;-4.00;99.90
23671;DHT22;12012;51.998;7.614;2022-11-20T04:23:35;-4.00;99.90
23671;DHT22;12012;51.998;7.614;2022-11-20T04:26:08;-4.00;99.90
23671;DHT22;12012;51.998;7.614;2022-11-20T04:28:34;-4.00;1.00
23671;DHT22;12012;51.998;7.614;2022-11-20T04:31:05;-4.00;1.00
23671;DHT22;12012;51.998;7.614;2022-11-20T04:33:31;-4.10;99.90
23671;DHT22;12012;51.998;7.614;2022-11-20T04:36:01;-4.10;1.00
23671;DHT22;12012;51.998;7.614;2022-11-20T04:38:27;-4.10;1.00
23671;DHT22;12012;51.998;7.614;2022-11-20T04:40:56;-4.20;99.90
23671;DHT22;12012;51.998;7.614;2022-11-20T04:43:22;-4.20;1.00
23671;DHT22;12012;51.998;7.614;2022-11-20T04:45:52;-4.20;3.10
23671;DHT22;12012;51.998;7.614;2022-11-20T04:48:18;-4.10;1.00
23671;DHT22;12012;51.998;7.614;2022-11-20T04:50:43;-4.10;1.00
23671;DHT22;12012;51.998;7.614;2022-11-20T04:53:09;-4.20;1.00
23671;DHT22;12012;51.998;7.614;2022-11-20T04:55:34;-4.10;53.10
23671;DHT22;12012;51.998;7.614;2022-11-20T04:58:00;-4.10;1.00
23671;DHT22;12012;51.998;7.614;2022-11-20T05:00:26;-4.10;1.00
23671;DHT22;12012;51.998;7.614;2022-11-20T05:02:51;-4.20;99.90
23671;DHT22;12012;51.998;7.614;2022-11-20T05:05:17;-4.20;1.00
23671;DHT22;12012;51.998;7.614;2022-11-20T05:07:42;-4.30;99.90
23671;DHT22;12012;51.998;7.614;2022-11-20T05:10:08;-4.30;99.90
23671;DHT22;12012;51.998;7.614;2022-11-20T05:12:33;-4.30;1.00
23671;DHT22;12012;51.998;7.614;2022-11-20T05:14:59;-4.40;1.00
23671;DHT22;12012;51.998;7.614;2022-11-20T05:17:24;-4.40;99.90
23671;DHT22;12012;51.998;7.614;2022-11-20T05:19:50;-4.40;88.80
23671;DHT22;12012;51.998;7.614;2022-11-20T05:22:16;-4.30;57.90
23671;DHT22;12012;51.998;7.614;2022-11-20T05:24:41;-4.30;99.90
23671;DHT22;12012;51.998;7.614;2022-11-20T05:27:07;-4.30;1.00
23671;DHT22;12012;51.998;7.614;2022-11-20T05:29:32;-4.40;53.20
23671;DHT22;12012;51.998;7.614;2022-11-20T05:31:58;-4.40;27.20
23671;DHT22;12012;51.998;7.614;2022-11-20T05:34:23;-4.40;99.90
23671;DHT22;12012;51.998;7.614;2022-11-20T05:36:49;-4.40;99.90
23671;DHT22;12012;51.998;7.614;2022-11-20T05:39:15;-4.40;99.90
23671;DHT22;12012;51.998;7.614;2022-11-20T05:41:40;-4.40;53.40
23671;DHT22;12012;51.998;7.614;2022-11-20T05:44:06;-4.40;87.60
23671;DHT22;12012;51.998;7.614;2022-11-20T05:46:31;-4.40;27.30
23671;DHT22;12012;51.998;7.614;2022-11-20T05:48:57;-4.40;29.80
23671;DHT22;12012;51.998;7.614;2022-11-20T05:51:23;-4.40;72.50
23671;DHT22;12012;51.998;7.614;2022-11-20T05:53:49;-4.30;99.90
23671;DHT22;12012;51.998;7.614;2022-11-20T05:56:17;-4.30;1.00
23671;DHT22;12012;51.998;7.614;2022-11-20T05:58:43;-4.20;1.00
23671;DHT22;12012;51.998;7.614;2022-11-20T06:03:40;-4.10;99.90
23671;DHT22;12012;51.998;7.614;2022-11-20T06:06:07;-4.00;99.90
23671;DHT22;12012;51.998;7.614;2022-11-20T06:08:33;-3.90;1.00
23671;DHT22;12012;51.998;7.614;2022-11-20T06:11:04;-3.80;1.00
23671;DHT22;12012;51.998;7.614;2022-11-20T06:13:29;-3.70;99.90
23671;DHT22;12012;51.998;7.614;2022-11-20T06:15:55;-3.60;1.00
23671;DHT22;12012;51.998;7.614;2022-11-20T06:18:20;-3.60;99.90
23671;DHT22;12012;51.998;7.614;2022-11-20T06:20:46;-3.50;1.00
23671;DHT22;12012;51.998;7.614;2022-11-20T06:23:12;-3.50;47.90
23671;DHT22;12012;51.998;7.614;2022-11-20T06:25:42;-3.40;1.00
23671;DHT22;12012;51.998;7.614;2022-11-20T06:28:09;-3.40;99.90
23671;DHT22;12012;51.998;7.614;2022-11-20T06:30:35;-3.30;76.50
23671;DHT22;12012;51.998;7.614;2022-11-20T06:33:01;-3.30;99.90
23671;DHT22;12012;51.998;7.614;2022-11-20T06:35:26;-3.30;99.90
23671;DHT22;12012;51.998;7.614;2022-11-20T06:37:52;-3.20;1.00
23671;DHT22;12012;51.998;7.614;2022-11-20T06:40:17;-3.10;1.00
23671;DHT22;12012;51.998;7.614;2022-11-20T06:42:43;-3.10;1.00
23671;DHT22;12012;51.998;7.614;2022-11-20T06:45:09;-3.00;99.90
23671;DHT22;12012;51.998;7.614;2022-11-20T06:47:35;-2.90;99.90
23671;DHT22;12012;51.998;7.614;2022-11-20T06:50:00;-2.90;99.90
23671;DHT22;12012;51.998;7.614;2022-11-20T06:52:26;-2.80;99.90
23671;DHT22;12012;51.998;7.614;2022-11-20T06:54:52;-2.80;1.00
23671;DHT22;12012;51.998;7.614;2022-11-20T06:57:17;-2.70;81.30
23671;DHT22;12012;51.998;7.614;2022-11-20T06:59:43;-2.70;99.90
23671;DHT22;12012;51.998;7.614;2022-11-20T07:02:11;-2.60;99.90
23671;DHT22;12012;51.998;7.614;2022-11-20T07:04:38;-2.50;99.90
23671;DHT22;12012;51.998;7.614;2022-11-20T07:07:04;-2.50;99.90
23671;DHT22;12012;51.998;7.614;2022-11-20T07:09:29;-2.40;1.00
23671;DHT22;12012;51.998;7.614;2022-11-20T07:11:55;-2.40;24.70
23671;DHT22;12012;51.998;7.614;2022-11-20T07:14:20;-2.30;1.00
23671;DHT22;12012;51.998;7.614;2022-11-20T07:16:46;-2.20;99.90
23671;DHT22;12012;51.998;7.614;2022-11-20T07:19:11;-2.10;99.90
23671;DHT22;12012;51.998;7.614;2022-11-20T07:21:37;-2.00;99.90
23671;DHT22;12012;51.998;7.614;2022-11-20T07:24:03;-2.00;99.90
23671;DHT22;12012;51.998;7.614;2022-11-20T07:26:28;-1.90;99.90
23671;DHT22;12012;51.998;7.614;2022-11-20T07:28:54;-1.90;99.90
23671;DHT22;12012;51.998;7.614;2022-11-20T07:31:19;-1.80;1.00
23671;DHT22;12012;51.998;7.614;2022-11-20T07:33:45;-1.80;1.00
23671;DHT22;12012;51.998;7.614;2022-11-20T07:36:11;-1.70;99.90
23671;DHT22;12012;51.998;7.614;2022-11-20T07:38:37;-1.70;99.90
23671;DHT22;12012;51.998;7.614;2022-11-20T07:41:03;-1.70;99.90
23671;DHT22;12012;51.998;7.614;2022-11-20T07:43:28;-1.70;1.00
23671;DHT22;12012;51.998;7.614;2022-11-20T07:46:00;-1.60;1.00
23671;DHT22;12012;51.998;7.614;2022-11-20T07:48:26;-1.60;99.90
23671;DHT22;12012;51.998;7.614;2022-11-20T07:50:58;-1.60;1.00
23671;DHT22;12012;51.998;7.614;2022-11-20T07:53:24;-1.50;1.00
23671;DHT22;12012;51.998;7.614;2022-11-20T07:55:49;-1.50;99.90
23671;DHT22;12012;51.998;7.614;2022-11-20T07:58:18;-1.40;1.00
23671;DHT22;12012;51.998;7.614;2022-11-20T08:00:44;-1.40;1.00
23671;DHT22;12012;51.998;7.614;2022-11-20T08:03:09;-1.40;1.00
23671;DHT22;12012;51.998;7.614;2022-11-20T08:05:35;-1.30;99.90
23671;DHT22;12012;51.998;7.614;2022-11-20T08:08:00;-1.30;99.90
23671;DHT22;12012;51.998;7.614;2022-11-20T08:10:26;-1.20;1.00
23671;DHT22;12012;51.998;7.614;2022-11-20T08:12:52;-1.20;99.90
23671;DHT22;12012;51.998;7.614;2022-11-20T08:15:38;-1.10;99.90
23671;DHT22;12012;51.998;7.614;2022-11-20T08:18:06;-1.00;12.50
23671;DHT22;12012;51.998;7.614;2022-11-20T08:20:32;-0.90;99.90
23671;DHT22;12012;51.998;7.614;2022-11-20T08:23:02;-0.80;1.00
23671;DHT22;12012;51.998;7.614;2022-11-20T08:25:29;-0.70;38.30
23671;DHT22;12012;51.998;7.614;2022-11-20T08:27:59;-0.60;1.00
23671;DHT22;12012;51.998;7.614;2022-11-20T08:30:25;-0.50;1.00
23671;DHT22;12012;51.998;7.614;2022-11-20T08:32:51;-0.40;1.00
23671;DHT22;12012;51.998;7.614;2022-11-20T08:35:17;-0.30;99.90
23671;DHT22;12012;51.998;7.614;2022-11-20T08:37:46;-0.20;99.90
23671;DHT22;12012;51.998;7.614;2022-11-20T08:40:12;-0.20;99.90
23671;DHT22;12012;51.998;7.614;2022-11-20T08:42:48;-0.20;1.00
23671;DHT22;12012;51.998;7.614;2022-11-20T08:45:15;-0.10;1.00
23671;DHT22;12012;51.998;7.614;2022-11-20T08:47:41;-0.10;99.90
23671;DHT22;12012;51.998;7.614;2022-11-20T08:52:32;0.10;99.90
23671;DHT22;12012;51.998;7.614;2022-11-20T08:54:58;0.20;1.00
23671;DHT22;12012;51.998;7.614;2022-11-20T08:57:23;0.30;99.90
23671;DHT22;12012;51.998;7.614;2022-11-20T08:59:49;0.40;1.00
23671;DHT22;12012;51.998;7.614;2022-11-20T09:02:14;0.40;99.90
23671;DHT22;12012;51.998;7.614;2022-11-20T09:04:40;0.50;99.90
23671;DHT22;12012;51.998;7.614;2022-11-20T09:07:06;0.60;99.90
23671;DHT22;12012;51.998;7.614;2022-11-20T09:09:31;0.70;99.90
23671;DHT22;12012;51.998;7.614;2022-11-20T09:11:58;0.80;99.90
23671;DHT22;12012;51.998;7.614;2022-11-20T09:14:23;0.90;1.00
23671;DHT22;12012;51.998;7.614;2022-11-20T09:16:54;1.00;39.30
23671;DHT22;12012;51.998;7.614;2022-11-20T09:19:20;1.10;99.90
23671;DHT22;12012;51.998;7.614;2022-11-20T09:21:46;1.30;1.00
23671;DHT22;12012;51.998;7.614;2022-11-20T09:24:11;1.40;99.90
23671;DHT22;12012;51.998;7.614;2022-11-20T09:26:37;1.50;99.90
23671;DHT22;12012;51.998;7.614;2022-11-20T09:29:02;1.50;94.80
23671;DHT22;12012;51.998;7.614;2022-11-20T09:31:28;1.70;1.00
23671;DHT22;12012;51.998;7.614;2022-11-20T09:33:53;1.80;1.00
23671;DHT22;12012;51.998;7.614;2022-11-20T09:36:19;2.00;1.00
23671;DHT22;12012;51.998;7.614;2022-11-20T09:38:46;2.10;1.00
23671;DHT22;12012;51.998;7.614;2022-11-20T09:55:24;3.70;99.90
23671;DHT22;12012;51.998;7.614;2022-11-20T09:57:51;3.90;1.00
23671;DHT22;12012;51.998;7.614;2022-11-20T10:00:17;4.20;1.00
23671;DHT22;12012;51.998;7.614;2022-11-20T10:02:58;4.40;99.90
23671;DHT22;12012;51.998;7.614;2022-11-20T10:05:35;4.70;99.90
23671;DHT22;12012;51.998;7.614;2022-11-20T10:08:16;5.00;1.00
23671;DHT22;12012;51.998;7.614;2022-11-20T10:10:53;5.40;1.00
23671;DHT22;12012;51.998;7.614;2022-11-20T10:13:33;5.80;99.90
23671;DHT22;12012;51.998;7.614;2022-11-20T10:16:18;6.10;99.90
23671;DHT22;12012;51.998;7.614;2022-11-20T10:19:07;6.40;99.90
23671;DHT22;12012;51.998;7.614;2022-11-20T10:21:59;6.90;94.00
23671;DHT22;12012;51.998;7.614;2022-11-20T10:30:09;7.80;1.00
23671;DHT22;12012;51.998;7.614;2022-11-20T10:32:38;8.10;1.00
23671;DHT22;12012;51.998;7.614;2022-11-20T10:35:14;8.40;99.90
23671;DHT22;12012;51.998;7.614;2022-11-20T10:37:48;8.70;99.90
23671;DHT22;12012;51.998;7.614;2022-11-20T10:40:19;8.90;99.90
23671;DHT22;12012;51.998;7.614;2022-11-20T10:43:01;9.20;99.90
23671;DHT22;12012;51.998;7.614;2022-11-20T10:45:44;9.40;99.90
23671;DHT22;12012;51.998;7.614;2022-11-20T10:48:23;9.70;99.90
23671;DHT22;12012;51.998;7.614;2022-11-20T10:51:30;10.00;99.90
23671;DHT22;12012;51.998;7.614;2022-11-20T10:54:20;10.40;99.90
23671;DHT22;12012;51.998;7.614;2022-11-20T10:56:52;11.00;99.90
23671;DHT22;12012;51.998;7.614;2022-11-20T10:59:37;11.90;99.90
23671;DHT22;12012;51.998;7.614;2022-11-20T11:02:23;13.60;99.90
23671;DHT22;12012;51.998;7.614;2022-11-20T11:04:51;14.90;90.80
23671;DHT22;12012;51.998;7.614;2022-11-20T11:09:50;14.20;63.20
23671;DHT22;12012;51.998;7.614;2022-11-20T11:12:17;13.10;68.10
23671;DHT22;12012;51.998;7.614;2022-11-20T11:14:48;13.30;74.00
23671;DHT22;12012;51.998;7.614;2022-11-20T11:20:11;15.20;50.40
23671;DHT22;12012;51.998;7.614;2022-11-20T11:22:51;16.00;38.00
23671;DHT22;12012;51.998;7.614;2022-11-20T11:27:54;14.70;25.70
23671;DHT22;12012;51.998;7.614;2022-11-20T11:30:22;13.80;26.30
23671;DHT22;12012;51.998;7.614;2022-11-20T11:32:48;13.70;28.40
23671;DHT22;12012;51.998;7.614;2022-11-20T11:35:25;14.30;26.50
23671;DHT22;12012;51.998;7.614;2022-11-20T11:37:51;15.00;25.10
23671;DHT22;12012;51.998;7.614;2022-11-20T11:40:21;16.10;22.60
23671;DHT22;12012;51.998;7.614;2022-11-20T11:42:58;15.90;15.60
23671;DHT22;12012;51.998;7.614;2022-11-20T11:45:24;15.20;17.70
23671;DHT22;12012;51.998;7.614;2022-11-20T11:47:52;16.50;16.30
23671;DHT22;12012;51.998;7.614;2022-11-20T11:50:25;17.90;9.50
23671;DHT22;12012;51.998;7.614;2022-11-20T11:55:33;18.90;1.00
23671;DHT22;12012;51.998;7.614;2022-11-20T12:00:41;20.90;1.00
23671;DHT22;12012;51.998;7.614;2022-11-20T12:03:34;21.30;1.00
23671;DHT22;12012;51.998;7.614;2022-11-20T12:06:13;21.90;1.00
23671;DHT22;12012;51.998;7.614;2022-11-20T12:14:12;22.30;1.00
23671;DHT22;12012;51.998;7.614;2022-11-20T12:16:39;22.60;1.00
23671;DHT22;12012;51.998;7.614;2022-11-20T12:19:12;22.40;1.00
23671;DHT22;12012;51.998;7.614;2022-11-20T12:21:56;22.40;1.00
23671;DHT22;12012;51.998;7.614;2022-11-20T12:24:43;21.90;1.00
23671;DHT22;12012;51.998;7.614;2022-11-20T12:30:11;20.50;1.00
23671;DHT22;12012;51.998;7.614;2022-11-20T12:38:36;17.70;1.00
23671;DHT22;12012;51.998;7.614;2022-11-20T12:50:09;14.90;1.00
23671;DHT22;12012;51.998;7.614;2022-11-20T12:52:56;13.60;1.00
23671;DHT22;12012;51.998;7.614;2022-11-20T13:07:06;10.20;1.00
23671;DHT22;12012;51.998;7.614;2022-11-20T13:09:34;9.30;1.00
23671;DHT22;12012;51.998;7.614;2022-11-20T13:14:47;8.10;1.00
23671;DHT22;12012;51.998;7.614;2022-11-20T13:20:11;7.50;1.00
23671;DHT22;12012;51.998;7.614;2022-11-20T13:22:46;7.30;1.00
23671;DHT22;12012;51.998;7.614;2022-11-20T13:25:34;7.20;1.00
23671;DHT22;12012;51.998;7.614;2022-11-20T13:30:36;6.80;1.00
23671;DHT22;12012;51.998;7.614;2022-11-20T13:33:08;6.60;1.00
23671;DHT22;12012;51.998;7.614;2022-11-20T13:35:37;6.50;1.00
23671;DHT22;12012;51.998;7.614;2022-11-20T13:38:12;6.30;1.00
23671;DHT22;12012;51.998;7.614;2022-11-20T13:40:58;6.20;1.00
23671;DHT22;12012;51.998;7.614;2022-11-20T13:43:41;6.10;1.00
23671;DHT22;12012;51.998;7.614;2022-11-20T13:46:09;5.90;1.00
23671;DHT22;12012;51.998;7.614;2022-11-20T13:48:41;5.80;1.00
23671;DHT22;12012;51.998;7.614;2022-11-20T13:51:41;5.70;1.00
23671;DHT22;12012;51.998;7.614;2022-11-20T13:57:27;5.50;1.00
23671;DHT22;12012;51.998;7.614;2022-11-20T14:02:40;5.50;1.00
23671;DHT22;12012;51.998;7.614;2022-11-20T14:05:20;5.40;1.00
23671;DHT22;12012;51.998;7.614;2022-11-20T14:07:47;5.40;1.00
23671;DHT22;12012;51.998;7.614;2022-11-20T14:12:45;5.10;1.00
23671;DHT22;12012;51.998;7.614;2022-11-20T14:15:43;5.00;1.00
23671;DHT22;12012;51.998;7.614;2022-11-20T14:18:15;4.80;2.20
23671;DHT22;12012;51.998;7.614;2022-11-20T14:20:44;4.70;11.00
23671;DHT22;12012;51.998;7.614;2022-11-20T14:23:10;4.60;18.80
23671;DHT22;12012;51.998;7.614;2022-11-20T14:25:37;4.60;31.70
23671;DHT22;12012;51.998;7.614;2022-11-20T14:28:03;4.60;49.70
23671;DHT22;12012;51.998;7.614;2022-11-20T14:30:43;4.60;53.20
23671;DHT22;12012;51.998;7.614;2022-11-20T14:33:11;4.60;66.70
23671;DHT22;12012;51.998;7.614;2022-11-20T14:35:44;4.50;67.60
23671;DHT22;12012;51.998;7.614;2022-11-20T14:38:12;4.50;90.50
23671;DHT22;12012;51.998;7.614;2022-11-20T14:40:39;4.40;95.90
23671;DHT22;12012;51.998;7.614;2022-11-20T14:43:25;4.40;99.90
23671;DHT22;12012;51.998;7.614;2022-11-20T14:46:05;4.30;99.90
23671;DHT22;12012;51.998;7.614;2022-11-20T14:51:12;4.30;99.90
23671;DHT22;12012;51.998;7.614;2022-11-20T14:53:48;4.20;99.90
23671;DHT22;12012;51.998;7.614;2022-11-20T14:56:22;4.20;99.90
23671;DHT22;12012;51.998;7.614;2022-11-20T14:58:58;4.10;99.90
23671;DHT22;12012;51.998;7.614;2022-11-20T15:01:29;4.10;99.90
23671;DHT22;12012;51.998;7.614;2022-11-20T15:04:09;4.10;99.90
23671;DHT22;12012;51.998;7.614;2022-11-20T15:06:35;4.00;99.90
23671;DHT22;12012;51.998;7.614;2022-11-20T15:09:04;4.00;99.90
23671;DHT22;12012;51.998;7.614;2022-11-20T15:11:33;4.00;99.90
23671;DHT22;12012;51.998;7.614;2022-11-20T15:14:04;3.90;99.90
23671;DHT22;12012;51.998;7.614;2022-11-20T15:16:31;3.90;99.90
23671;DHT22;12012;51.998;7.614;2022-11-20T15:18:57;3.90;99.90
23671;DHT22;12012;51.998;7.614;2022-11-20T15:21:22;3.90;99.90
23671;DHT22;12012;51.998;7.614;2022-11-20T15:23:48;3.80;99.90
23671;DHT22;12012;51.998;7.614;2022-11-20T15:26:18;3.80;99.90
23671;DHT22;12012;51.998;7.614;2022-11-20T15:28:47;3.80;99.90
23671;DHT22;12012;51.998;7.614;2022-11-20T15:31:17;3.80;99.90
23671;DHT22;12012;51.998;7.614;2022-11-20T15:33:43;3.80;99.90
23671;DHT22;12012;51.998;7.614;2022-11-20T15:36:09;3.80;99.90
23671;DHT22;12012;51.998;7.614;2022-11-20T15:38:35;3.80;99.90
23671;DHT22;12012;51.998;7.614;2022-11-20T15:41:01;3.80;99.90
23671;DHT22;12012;51.998;7.614;2022-11-20T15:43:27;3.70;99.90
23671;DHT22;12012;51.998;7.614;2022-11-20T15:45:59;3.70;99.90
23671;DHT22;12012;51.998;7.614;2022-11-20T15:48:28;3.70;99.90
23671;DHT22;12012;51.998;7.614;2022-11-20T15:51:02;3.70;99.90
23671;DHT22;12012;51.998;7.614;2022-11-20T15:53:29;3.60;99.90
23671;DHT22;12012;51.998;7.614;2022-11-20T15:55:54;3.60;99.90
23671;DHT22;12012;51.998;7.614;2022-11-20T15:58:20;3.60;99.90
23671;DHT22;12012;51.998;7.614;2022-11-20T16:00:46;3.60;99.90
23671;DHT22;12012;51.998;7.614;2022-11-20T16:03:13;3.60;99.90
23671;DHT22;12012;51.998;7.614;2022-11-20T16:05:38;3.50;99.90
23671;DHT22;12012;51.998;7.614;2022-11-20T16:08:04;3.50;99.90
23671;DHT22;12012;51.998;7.614;2022-11-20T16:10:30;3.50;99.90
23671;DHT22;12012;51.998;7.614;2022-11-20T16:12:55;3.50;99.90
23671;DHT22;12012;51.998;7.614;2022-11-20T16:15:39;3.50;99.90
23671;DHT22;12012;51.998;7.614;2022-11-20T16:18:13;3.50;99.90
23671;DHT22;12012;51.998;7.614;2022-11-20T16:20:39;3.40;99.90
23671;DHT22;12012;51.998;7.614;2022-11-20T16:23:06;3.40;99.90
23671;DHT22;12012;51.998;7.614;2022-11-20T16:25:31;3.40;99.90
23671;DHT22;12012;51.998;7.614;2022-11-20T16:27:57;3.40;99.90
23671;DHT22;12012;51.998;7.614;2022-11-20T16:30:23;3.40;99.90
23671;DHT22;12012;51.998;7.614;2022-11-20T16:32:48;3.40;99.90
23671;DHT22;12012;51.998;7.614;2022-11-20T16:35:14;3.40;99.90
23671;DHT22;12012;51.998;7.614;2022-11-20T16:37:40;3.40;99.90
23671;DHT22;12012;51.998;7.614;2022-11-20T16:40:06;3.40;99.90
23671;DHT22;12012;51.998;7.614;2022-11-20T16:42:35;3.40;99.90
23671;DHT22;12012;51.998;7.614;2022-11-20T16:45:01;3.40;99.90
23671;DHT22;12012;51.998;7.614;2022-11-20T16:47:27;3.40;1.00
23671;DHT22;12012;51.998;7.614;2022-11-20T16:49:52;3.40;99.90
23671;DHT22;12012;51.998;7.614;2022-11-20T16:52:18;3.30;1.00
23671;DHT22;12012;51.998;7.614;2022-11-20T16:54:43;3.30;1.00
23671;DHT22;12012;51.998;7.614;2022-11-20T16:57:09;3.30;1.00
23671;DHT22;12012;51.998;7.614;2022-11-20T16:59:34;3.30;1.00
23671;DHT22;12012;51.998;7.614;2022-11-20T17:02:00;3.30;1.00
23671;DHT22;12012;51.998;7.614;2022-11-20T17:04:25;3.30;1.00
23671;DHT22;12012;51.998;7.614;2022-11-20T17:06:51;3.20;1.00
23671;DHT22;12012;51.998;7.614;2022-11-20T17:09:17;3.20;1.00
23671;DHT22;12012;51.998;7.614;2022-11-20T17:11:43;3.20;1.00
23671;DHT22;12012;51.998;7.614;2022-11-20T17:14:10;3.10;54.20
23671;DHT22;12012;51.998;7.614;2022-11-20T17:16:36;3.10;1.00
23671;DHT22;12012;51.998;7.614;2022-11-20T17:19:03;3.00;99.90
23671;DHT22;12012;51.998;7.614;2022-11-20T17:21:30;3.00;99.90
23671;DHT22;12012;51.998;7.614;2022-11-20T17:24:00;3.00;32.10
23671;DHT22;12012;51.998;7.614;2022-11-20T17:26:26;2.90;99.90
23671;DHT22;12012;51.998;7.614;2022-11-20T17:29:07;2.80;99.90
23671;DHT22;12012;51.998;7.614;2022-11-20T17:31:35;2.80;99.90